Pagrindinis puslapis
METAR-TAF:

METAR-TAF

Oro uostai :

Mesotas, Tailandas

platuma: 16-40N, ilguma: 098-33E, Aukštis: 196 m

Dabartinis oras

Ataskaita buvo paskelbta 31 minutes, ne 01:00 UTC
Vėjas 3 kt iš Pietryčių
Temperatūra 20°C
Drėgmė 73%
Slėgis 1010 hPa
Matomumas: 5000 m
rūkana

METAR: VTPM 260100Z 13003KT 5000 BR NSC 20/15 Q1010 NOSIG

Laikas: 08:31 (01:31 UTC)

Prognozė

Ataskaita buvo paskelbta 2 valandos ir 31 minutes, ne 23:00 UTC
Prognozė galioja nuo 26 metu 00 UTC su 26 metu 24 UTC
Vėjas 5 kt iš Vakarų/Pietvakarių
Matomumas: 8000 m

TAF: VTPM 252300Z 2600/2624 25005KT 8000 NSC

Orai ataskaitas ir orų prognozės (METAR, TAF).

turimą stotys yra geltonos ir raudonos taškus žemėlapyje.

Perkelti pele per norėdami pamatyti stoties vardą.

Tada spustelėkite, norėdami matyti oro stebėjimo ir prognozės.

Norėdami pakeisti žemėlapį: spustelėkite ant žalios mygtukų su juodo kryžiaus žemyn,; žalią mygtuką su brūkšneliu, jei norite nutolinti; arba žalių rodyklių gretimoms žemėlapius.


METAR-TAF: